Wednesday, February 20, 2019, 2:50 PM EST
Back to Local

KDXR, Danbury Municipal Airport

Location: Danbury, CT, United States Lat: 41.367
Local Time: 2:50 PM EST (19:50 GMT) Lon: -73.483
Time Zone: US/Eastern Elev: 459 ft

Show me the last for .
Show Coded

Time T Td Feel RH Dir Speed Gust Alt SLP Vis Weather Sky Remarks
2019-02-20 13:53 26 15 19 62 180° 6 - 30.48 30.50 3 -SN BKN030 BKN041 OVC055 1-hr Precip Total: Trace
2019-02-20 12:53 27 11 22 50 190° 5 - 30.51 30.53 10 BKN075 OVC085 6-hr Min Temp (1pm): 21.0°F
6-hr Max Temp (1pm): 27.0°F
2019-02-20 11:53 26 11 22 52 Variable 3 - 30.52 30.54 10 OVC100 None
2019-02-20 10:53 25 12 18 57 80° 6 - 30.56 30.58 10 SCT110 None
2019-02-20 09:53 24 10 20 54 80° 3 - 30.57 30.58 10 CLR None
2019-02-20 08:53 22 10 - 59 - Calm - 30.59 30.61 10 CLR None
2019-02-20 07:53 21 10 - 61 - Calm - 30.60 30.62 10 CLR None
2019-02-20 06:53 21 8 16 56 330° 3 - 30.58 30.59 10 CLR 6-hr Min Temp (7am): 19.0°F
6-hr Max Temp (7am): 21.0°F
2019-02-20 05:53 21 9 16 58 80° 3 - 30.57 30.59 10 CLR None
2019-02-20 04:53 20 9 - 61 - Calm - 30.58 30.60 10 CLR None
2019-02-20 03:53 19 9 14 64 250° 3 - 30.60 30.62 10 CLR None
2019-02-20 02:53 20 7 - 56 - Calm - 30.58 30.59 10 CLR None
2019-02-20 01:53 20 8 - 59 - Calm - 30.59 30.60 10 CLR None
2019-02-20 00:53 21 5 - 49 - Calm - 30.58 30.60 10 CLR 6-hr Min Temp (1am): 21.0°F
6-hr Max Temp (1am): 28.0°F
2019-02-19 23:53 22 4 16 45 350° 5 - 30.58 30.59 10 CLR 24-hr Min Temp (12am): 14.0°F
24-hr Max Temp (12am): 30.9°F
2019-02-19 22:53 23 4 17 43 360° 5 - 30.59 30.60 10 CLR None
2019-02-19 21:53 24 4 20 41 340° 3 - 30.59 30.61 10 CLR None
2019-02-19 20:53 25 5 18 41 360° 6 - 30.58 30.60 10 CLR None
2019-02-19 19:53 26 6 19 41 360° 6 - 30.58 30.60 10 CLR None
2019-02-19 18:53 28 7 23 40 340° 5 - 30.55 30.57 10 CLR 6-hr Min Temp (7pm): 28.0°F
6-hr Max Temp (7pm): 30.9°F
2019-02-19 17:53 28 8 24 42 340° 3 - 30.52 30.53 10 CLR None
2019-02-19 16:53 30 8 23 38 330° 7 - 30.51 30.53 10 CLR None
2019-02-19 15:53 30 7 22 37 310° 8 - 30.52 30.54 10 CLR None
2019-02-19 14:53 30 7 20 37 330° 14 - 30.52 30.53 10 CLR None

Support USWX by starting your Amazon purchase here.